Time;durP1;ratioP1;P1;durP2;ratioP2;P2;SDS_P1;SDS_P2;PMS_P1;PMS_P2;Temp;Humidity;BMP_temperature;BMP_pressure;BME280_temperature;BME280_humidity;BME280_pressure;Samples;Min_cycle;Max_cycle;Signal;HPM_P1;HPM_P2
2021/01/14 00:00:36;;;;;;;15.63;7.20;;;;;;;;;;4949722;28;20378;-87
2021/01/14 00:03:06;;;;;;;15.80;7.32;;;;;;;;;;4957334;28;20624;-87
2021/01/14 00:05:35;;;;;;;15.13;7.32;;;;;;;;;;4952033;28;23648;-87
2021/01/14 00:08:09;;;;;;;15.50;7.22;;;;;;;;;;4917284;28;20191;-88
2021/01/14 00:10:37;;;;;;;15.18;7.22;;;;;;;;;;4941117;28;20792;-87
2021/01/14 00:13:29;;;;;;;15.85;6.88;;;;;;;;;;4966051;28;20105;-87
2021/01/14 00:15:55;;;;;;;14.10;6.50;;;;;;;;;;4976893;28;20034;-88
2021/01/14 00:18:22;;;;;;;16.27;6.40;;;;;;;;;;4927951;28;20824;-89
2021/01/14 00:20:50;;;;;;;14.93;6.13;;;;;;;;;;4966461;28;20979;-88
2021/01/14 00:23:17;;;;;;;13.20;6.10;;;;;;;;;;4960793;28;20513;-88
2021/01/14 00:25:44;;;;;;;17.15;6.68;;;;;;;;;;5001844;28;20069;-87
2021/01/14 00:28:12;;;;;;;15.55;7.35;;;;;;;;;;4919503;28;20056;-90
2021/01/14 00:30:39;;;;;;;13.88;5.60;;;;;;;;;;4915368;28;20036;-89
2021/01/14 00:33:09;;;;;;;12.85;6.00;;;;;;;;;;4914191;28;20059;-91
2021/01/14 00:35:37;;;;;;;13.93;5.85;;;;;;;;;;4893706;28;20048;-91
2021/01/14 00:38:04;;;;;;;13.27;5.18;;;;;;;;;;4901710;28;20071;-92
2021/01/14 00:40:33;;;;;;;11.38;5.28;;;;;;;;;;4906205;28;20484;-92
2021/01/14 00:43:02;;;;;;;12.35;5.50;;;;;;;;;;4894673;28;20078;-92
2021/01/14 00:45:30;;;;;;;12.70;5.50;;;;;;;;;;4913435;28;20047;-90
2021/01/14 00:48:00;;;;;;;11.82;5.22;;;;;;;;;;4924424;28;20125;-92
2021/01/14 00:50:28;;;;;;;12.43;5.13;;;;;;;;;;4922055;28;20047;-92
2021/01/14 00:52:55;;;;;;;11.25;4.80;;;;;;;;;;4906510;28;20039;-91
2021/01/14 00:55:23;;;;;;;12.93;5.20;;;;;;;;;;4891632;28;20123;-91
2021/01/14 00:57:51;;;;;;;11.90;5.63;;;;;;;;;;4923103;28;21026;-91
2021/01/14 01:00:23;;;;;;;12.90;5.72;;;;;;;;;;4916506;28;20066;-90
2021/01/14 01:02:55;;;;;;;15.80;7.65;;;;;;;;;;4911073;28;20103;-92
2021/01/14 01:05:23;;;;;;;18.33;8.02;;;;;;;;;;4917460;28;20113;-91
2021/01/14 01:08:05;;;;;;;17.27;8.65;;;;;;;;;;4885394;28;20779;-91
2021/01/14 01:10:32;;;;;;;15.35;7.88;;;;;;;;;;4883623;28;20114;-89
2021/01/14 01:13:00;;;;;;;18.00;8.98;;;;;;;;;;4911820;28;20055;-91
2021/01/14 01:15:27;;;;;;;16.10;7.28;;;;;;;;;;4877122;28;20112;-91
2021/01/14 01:17:54;;;;;;;14.13;6.65;;;;;;;;;;4884163;28;20055;-90
2021/01/14 01:20:21;;;;;;;14.00;6.75;;;;;;;;;;4918278;28;20032;-91
2021/01/14 01:22:48;;;;;;;16.02;7.35;;;;;;;;;;4974000;28;20100;-91
2021/01/14 01:25:17;;;;;;;13.30;6.35;;;;;;;;;;4926516;28;20047;-91
2021/01/14 01:27:44;;;;;;;11.45;5.30;;;;;;;;;;4917630;28;20079;-91
2021/01/14 01:30:15;;;;;;;12.45;5.72;;;;;;;;;;4918686;28;20036;-91
2021/01/14 01:32:42;;;;;;;11.57;4.72;;;;;;;;;;4906163;28;20036;-91
2021/01/14 01:35:10;;;;;;;11.43;5.25;;;;;;;;;;4909743;28;20673;-91
2021/01/14 01:37:37;;;;;;;11.82;5.15;;;;;;;;;;4933286;28;20341;-90
2021/01/14 01:40:06;;;;;;;11.43;4.88;;;;;;;;;;4915351;28;20080;-90
2021/01/14 01:42:32;;;;;;;12.18;4.93;;;;;;;;;;4912970;28;20036;-91
2021/01/14 01:45:00;;;;;;;10.52;3.70;;;;;;;;;;4911350;28;20048;-91
2021/01/14 01:47:39;;;;;;;11.00;4.22;;;;;;;;;;4880259;28;20073;-91
2021/01/14 01:50:06;;;;;;;9.30;3.97;;;;;;;;;;4882808;28;20044;-90
2021/01/14 01:52:47;;;;;;;10.15;4.10;;;;;;;;;;4905477;28;20043;-91
2021/01/14 01:55:14;;;;;;;8.88;3.38;;;;;;;;;;4899815;28;20024;-91
2021/01/14 01:57:42;;;;;;;7.65;2.88;;;;;;;;;;4902500;28;20491;-91
2021/01/14 02:00:09;;;;;;;7.78;2.72;;;;;;;;;;4895614;28;20582;-92
2021/01/14 02:02:38;;;;;;;9.05;3.00;;;;;;;;;;4886888;28;20040;-91
2021/01/14 02:05:07;;;;;;;8.65;3.28;;;;;;;;;;4920112;28;20331;-91
2021/01/14 02:07:49;;;;;;;9.70;3.13;;;;;;;;;;4916038;28;20047;-91
2021/01/14 02:10:34;;;;;;;7.60;2.50;;;;;;;;;;4902225;28;20078;-91
2021/01/14 02:13:00;;;;;;;8.05;2.67;;;;;;;;;;4890769;28;20044;-91
2021/01/14 02:15:28;;;;;;;7.55;2.70;;;;;;;;;;4909226;28;20586;-91
2021/01/14 02:17:56;;;;;;;10.05;2.30;;;;;;;;;;4864071;28;20064;-92
2021/01/14 02:20:25;;;;;;;10.95;2.42;;;;;;;;;;4901537;28;20038;-91
2021/01/14 02:23:03;;;;;;;8.80;2.80;;;;;;;;;;4895595;28;20536;-92
2021/01/14 02:25:36;;;;;;;8.00;2.60;;;;;;;;;;4899399;28;20060;-93
2021/01/14 02:28:06;;;;;;;7.70;2.30;;;;;;;;;;4892375;28;20036;-92
2021/01/14 02:30:55;;;;;;;7.65;2.90;;;;;;;;;;4875699;28;20055;-91
2021/01/14 02:33:23;;;;;;;7.80;2.38;;;;;;;;;;4893876;28;20470;-92
2021/01/14 02:35:50;;;;;;;8.18;3.10;;;;;;;;;;4902301;28;20052;-91
2021/01/14 02:38:17;;;;;;;9.05;3.17;;;;;;;;;;4882974;28;20029;-90
2021/01/14 02:40:46;;;;;;;9.65;3.20;;;;;;;;;;4896197;28;20027;-91
2021/01/14 02:43:14;;;;;;;10.68;3.55;;;;;;;;;;4923576;28;20052;-92
2021/01/14 02:45:41;;;;;;;8.98;3.15;;;;;;;;;;4919576;28;20047;-91
2021/01/14 02:48:16;;;;;;;9.88;3.40;;;;;;;;;;4879223;28;20082;-91
2021/01/14 02:50:43;;;;;;;9.07;2.88;;;;;;;;;;4889771;28;20044;-91
2021/01/14 02:53:12;;;;;;;10.52;2.90;;;;;;;;;;4866902;28;20044;-91
2021/01/14 02:55:41;;;;;;;8.80;3.20;;;;;;;;;;4898431;28;20036;-91
2021/01/14 02:58:08;;;;;;;8.73;3.08;;;;;;;;;;4895743;28;20027;-92
2021/01/14 03:00:35;;;;;;;11.35;4.10;;;;;;;;;;4921868;28;20114;-91
2021/01/14 03:03:04;;;;;;;10.60;4.55;;;;;;;;;;4938057;28;20067;-91
2021/01/14 03:05:30;;;;;;;13.27;4.60;;;;;;;;;;4936356;28;20991;-91
2021/01/14 03:07:57;;;;;;;10.50;4.35;;;;;;;;;;4933471;28;20054;-90
2021/01/14 03:10:24;;;;;;;12.45;3.60;;;;;;;;;;4906166;28;20082;-91
2021/01/14 03:12:52;;;;;;;8.70;3.08;;;;;;;;;;4914479;28;20059;-90
2021/01/14 03:15:22;;;;;;;8.30;3.00;;;;;;;;;;4919781;28;20058;-92
2021/01/14 03:17:50;;;;;;;7.45;2.42;;;;;;;;;;4895594;28;20151;-91
2021/01/14 03:20:28;;;;;;;7.07;2.50;;;;;;;;;;4923259;28;20053;-92
2021/01/14 03:22:55;;;;;;;7.05;2.05;;;;;;;;;;4916987;28;20043;-91
2021/01/14 03:25:23;;;;;;;7.28;2.20;;;;;;;;;;4898400;28;20092;-91
2021/01/14 03:27:50;;;;;;;9.00;2.05;;;;;;;;;;4923122;28;20040;-91
2021/01/14 03:30:19;;;;;;;6.97;2.25;;;;;;;;;;4910205;28;20050;-92
2021/01/14 03:32:47;;;;;;;7.05;2.00;;;;;;;;;;4919446;28;20063;-91
2021/01/14 03:35:16;;;;;;;6.40;2.00;;;;;;;;;;4918089;28;20043;-91
2021/01/14 03:37:43;;;;;;;7.50;2.30;;;;;;;;;;4936691;28;20089;-91
2021/01/14 03:40:13;;;;;;;7.95;2.30;;;;;;;;;;4943588;28;20047;-92
2021/01/14 03:42:41;;;;;;;8.18;2.20;;;;;;;;;;4958997;28;20069;-91
2021/01/14 03:45:09;;;;;;;7.53;2.17;;;;;;;;;;4913540;28;20121;-92
2021/01/14 03:47:38;;;;;;;7.50;2.10;;;;;;;;;;4931317;28;20483;-92
2021/01/14 03:50:05;;;;;;;7.28;2.33;;;;;;;;;;4928771;28;20117;-91
2021/01/14 03:52:35;;;;;;;8.10;2.40;;;;;;;;;;4914783;28;20035;-90
2021/01/14 03:55:01;;;;;;;6.38;2.10;;;;;;;;;;4920558;28;20036;-93
2021/01/14 03:57:32;;;;;;;7.53;2.42;;;;;;;;;;4892939;28;20038;-92
2021/01/14 04:00:01;;;;;;;6.65;2.03;;;;;;;;;;4895050;28;20123;-92
2021/01/14 04:02:31;;;;;;;7.43;2.35;;;;;;;;;;4890982;28;20090;-91
2021/01/14 04:04:58;;;;;;;7.38;2.28;;;;;;;;;;4931374;28;20043;-91
2021/01/14 04:07:25;;;;;;;;;;;;;;;;;;4921773;28;20919;-92
2021/01/14 04:09:53;;;;;;;7.22;2.30;;;;;;;;;;4929144;28;19914;-92
2021/01/14 04:12:31;;;;;;;8.43;2.10;;;;;;;;;;4928364;28;20068;-91
2021/01/14 04:14:59;;;;;;;9.15;2.50;;;;;;;;;;4924699;28;20682;-91
2021/01/14 04:17:28;;;;;;;7.50;2.30;;;;;;;;;;4924273;28;20040;-91
2021/01/14 04:19:56;;;;;;;7.75;2.50;;;;;;;;;;4898016;28;20102;-91
2021/01/14 04:22:25;;;;;;;6.72;2.03;;;;;;;;;;4930866;28;20036;-92
2021/01/14 04:25:02;;;;;;;6.00;1.80;;;;;;;;;;4942814;28;20044;-92
2021/01/14 04:27:30;;;;;;;8.68;2.13;;;;;;;;;;4907012;28;20040;-91
2021/01/14 04:30:00;;;;;;;6.68;1.95;;;;;;;;;;4893604;28;20043;-92
2021/01/14 04:32:31;;;;;;;6.72;1.98;;;;;;;;;;4927794;28;20039;-91
2021/01/14 04:35:01;;;;;;;7.63;2.30;;;;;;;;;;4920376;27;20048;-92
2021/01/14 04:37:32;;;;;;;6.60;1.80;;;;;;;;;;4900788;28;20060;-91
2021/01/14 04:40:01;;;;;;;7.57;1.85;;;;;;;;;;4923022;28;20039;-92
2021/01/14 04:42:29;;;;;;;5.95;1.90;;;;;;;;;;4888203;28;20040;-91
2021/01/14 04:44:59;;;;;;;8.68;1.85;;;;;;;;;;4927465;28;20037;-90
2021/01/14 04:47:38;;;;;;;6.95;2.10;;;;;;;;;;4889230;28;20250;-91
2021/01/14 04:50:07;;;;;;;6.95;1.95;;;;;;;;;;4911497;28;20039;-91
2021/01/14 04:52:43;;;;;;;7.07;1.92;;;;;;;;;;4936512;28;20078;-91
2021/01/14 04:55:15;;;;;;;6.53;2.00;;;;;;;;;;4916955;28;20048;-91
2021/01/14 04:57:51;;;;;;;7.63;2.10;;;;;;;;;;4931204;28;20037;-91
2021/01/14 05:00:19;;;;;;;7.03;2.10;;;;;;;;;;4939037;28;20043;-91
2021/01/14 05:03:01;;;;;;;7.03;1.70;;;;;;;;;;4928976;28;20078;-91
2021/01/14 05:05:31;;;;;;;6.32;1.95;;;;;;;;;;4928689;28;20039;-92
2021/01/14 05:08:08;;;;;;;8.88;2.20;;;;;;;;;;4853298;28;20079;-91
2021/01/14 05:10:38;;;;;;;6.07;1.63;;;;;;;;;;4902193;28;20193;-91
2021/01/14 05:13:12;;;;;;;7.55;1.90;;;;;;;;;;4913406;28;20050;-91
2021/01/14 05:15:41;;;;;;;9.80;2.65;;;;;;;;;;4934517;28;20054;-91
2021/01/14 05:18:10;;;;;;;7.70;2.28;;;;;;;;;;4944050;28;20032;-92
2021/01/14 05:20:40;;;;;;;8.35;2.20;;;;;;;;;;4917587;28;20118;-92
2021/01/14 05:23:09;;;;;;;8.18;2.13;;;;;;;;;;4927502;28;20024;-91
2021/01/14 05:25:51;;;;;;;7.47;2.20;;;;;;;;;;4914474;28;20103;-92
2021/01/14 05:28:25;;;;;;;6.13;1.92;;;;;;;;;;4930242;28;20044;-92
2021/01/14 05:30:54;;;;;;;7.35;1.98;;;;;;;;;;4931499;28;20063;-92
2021/01/14 05:33:23;;;;;;;6.43;1.88;;;;;;;;;;4896730;28;20081;-91
2021/01/14 05:35:54;;;;;;;7.68;2.40;;;;;;;;;;4912454;28;20663;-91
2021/01/14 05:38:28;;;;;;;10.27;2.33;;;;;;;;;;4903814;28;20427;-91
2021/01/14 05:41:19;;;;;;;8.32;2.75;;;;;;;;;;4910684;28;20039;-93
2021/01/14 05:43:54;;;;;;;8.38;2.40;;;;;;;;;;4926718;28;20163;-91
2021/01/14 05:46:28;;;;;;;9.80;2.10;;;;;;;;;;4890832;28;20045;-92
2021/01/14 05:49:04;;;;;;;8.40;2.17;;;;;;;;;;4896696;28;20071;-92
2021/01/14 05:51:45;;;;;;;7.57;2.13;;;;;;;;;;4894763;28;20032;-91
2021/01/14 05:54:14;;;;;;;6.03;1.85;;;;;;;;;;4899211;28;20218;-92
2021/01/14 05:56:49;;;;;;;6.60;1.70;;;;;;;;;;4897847;28;20043;-91
2021/01/14 05:59:21;;;;;;;6.53;1.92;;;;;;;;;;4921297;28;20043;-92
2021/01/14 06:01:57;;;;;;;6.70;1.70;;;;;;;;;;4889427;28;20044;-92
2021/01/14 06:04:30;;;;;;;7.15;2.10;;;;;;;;;;4917847;28;20020;-92
2021/01/14 06:07:02;;;;;;;8.27;2.22;;;;;;;;;;4922949;28;20059;-92
2021/01/14 06:09:30;;;;;;;8.50;2.00;;;;;;;;;;4949428;28;20082;-91
2021/01/14 06:12:16;;;;;;;8.48;2.20;;;;;;;;;;4913968;28;20051;-92
2021/01/14 06:14:45;;;;;;;7.93;2.03;;;;;;;;;;4941303;28;20063;-92
2021/01/14 06:17:15;;;;;;;7.82;2.25;;;;;;;;;;4898880;28;20036;-92
2021/01/14 06:19:45;;;;;;;8.30;2.40;;;;;;;;;;4913232;28;20079;-91
2021/01/14 06:22:15;;;;;;;9.23;2.80;;;;;;;;;;4908570;28;20040;-91
2021/01/14 06:24:45;;;;;;;7.45;2.53;;;;;;;;;;4917947;28;20098;-94
2021/01/14 06:27:13;;;;;;;6.50;2.05;;;;;;;;;;4903951;28;20020;-93
2021/01/14 06:29:44;;;;;;;6.32;2.00;;;;;;;;;;4928206;28;20036;-95
2021/01/14 06:32:22;;;;;;;6.60;2.10;;;;;;;;;;4941981;28;20118;-93
2021/01/14 06:34:55;;;;;;;5.97;1.85;;;;;;;;;;4935768;28;20039;-95
2021/01/14 06:37:22;;;;;;;5.70;1.88;;;;;;;;;;4920834;28;20036;-94
2021/01/14 06:40:01;;;;;;;6.45;2.17;;;;;;;;;;4913852;28;20075;-93
2021/01/14 06:42:32;;;;;;;7.78;2.60;;;;;;;;;;4923983;28;20660;-93
2021/01/14 06:45:05;;;;;;;7.03;2.67;;;;;;;;;;4889021;28;20093;-95
2021/01/14 06:47:39;;;;;;;7.68;2.40;;;;;;;;;;4934874;28;20051;-94
2021/01/14 06:50:24;;;;;;;7.70;2.50;;;;;;;;;;4929636;28;20099;-94
2021/01/14 06:53:05;;;;;;;7.85;2.65;;;;;;;;;;4922061;28;20703;-94
2021/01/14 06:55:36;;;;;;;7.32;2.60;;;;;;;;;;4909098;28;20039;-92
2021/01/14 06:58:29;;;;;;;7.93;2.60;;;;;;;;;;4931076;28;20040;-93
2021/01/14 07:01:03;;;;;;;9.68;3.30;;;;;;;;;;4887405;28;20031;-93
2021/01/14 07:03:33;;;;;;;7.65;3.17;;;;;;;;;;4943351;28;20032;-93
2021/01/14 07:06:08;;;;;;;7.47;3.03;;;;;;;;;;4967461;28;20053;-93
2021/01/14 07:08:38;;;;;;;8.27;2.95;;;;;;;;;;4934783;28;20055;-94
2021/01/14 07:11:10;;;;;;;8.70;3.10;;;;;;;;;;4944023;28;20037;-94
2021/01/14 07:13:44;;;;;;;9.48;2.85;;;;;;;;;;4949917;28;20049;-94
2021/01/14 07:16:12;;;;;;;8.75;2.55;;;;;;;;;;4894632;28;20197;-95
2021/01/14 07:18:43;;;;;;;8.98;2.70;;;;;;;;;;4902879;28;20024;-95
2021/01/14 07:21:13;;;;;;;7.55;2.83;;;;;;;;;;4915030;28;20041;-93
2021/01/14 07:23:46;;;;;;;8.00;2.95;;;;;;;;;;4910412;28;20500;-93
2021/01/14 07:26:15;;;;;;;8.20;3.30;;;;;;;;;;4908289;28;20089;-94
2021/01/14 07:28:41;;;;;;;10.70;4.32;;;;;;;;;;4887414;28;20082;-95
2021/01/14 07:31:14;;;;;;;;;;;;;;;;;;4932330;28;20036;-94
2021/01/14 07:33:43;;;;;;;10.15;3.80;;;;;;;;;;4852369;28;19923;-93
2021/01/14 07:36:27;;;;;;;10.13;3.50;;;;;;;;;;4943953;28;20106;-93
2021/01/14 07:38:58;;;;;;;12.55;3.95;;;;;;;;;;4988135;28;20154;-95
2021/01/14 07:41:46;;;;;;;7.85;3.25;;;;;;;;;;4909851;28;20051;-92
2021/01/14 07:44:17;;;;;;;12.32;5.03;;;;;;;;;;4997728;28;20038;-92
2021/01/14 07:46:50;;;;;;;9.75;4.60;;;;;;;;;;4974663;28;20103;-91
2021/01/14 07:49:29;;;;;;;11.20;4.32;;;;;;;;;;4956691;28;20047;-92
2021/01/14 07:51:58;;;;;;;10.25;4.45;;;;;;;;;;5026193;28;20037;-92
2021/01/14 07:54:28;;;;;;;13.30;4.88;;;;;;;;;;5032513;28;20017;-91
2021/01/14 07:56:59;;;;;;;11.30;5.30;;;;;;;;;;5009346;28;20045;-92
2021/01/14 07:59:33;;;;;;;11.20;5.45;;;;;;;;;;4968225;28;20420;-92
2021/01/14 08:02:09;;;;;;;11.40;5.95;;;;;;;;;;5009945;27;20095;-93
2021/01/14 08:04:48;;;;;;;14.52;5.90;;;;;;;;;;4992874;28;20037;-92
2021/01/14 08:07:26;;;;;;;16.23;7.80;;;;;;;;;;5025699;28;20033;-93
2021/01/14 08:10:03;;;;;;;17.07;8.83;;;;;;;;;;5020176;28;20028;-93
2021/01/14 08:12:57;;;;;;;16.50;8.32;;;;;;;;;;4980476;28;20060;-93
2021/01/14 08:15:39;;;;;;;27.45;14.07;;;;;;;;;;4967879;28;20565;-93
2021/01/14 08:18:11;;;;;;;42.20;25.70;;;;;;;;;;4971303;28;20041;-93
2021/01/14 08:20:38;;;;;;;39.08;23.50;;;;;;;;;;4947334;28;20043;-91
2021/01/14 08:23:15;;;;;;;32.35;18.80;;;;;;;;;;4951180;28;20429;-92
2021/01/14 08:25:43;;;;;;;;;;;;;;;;;;4954750;28;20099;-91
2021/01/14 08:28:30;;;;;;;29.48;16.67;;;;;;;;;;4920583;28;19966;-92
2021/01/14 08:31:07;;;;;;;24.13;13.57;;;;;;;;;;4903833;28;20044;-92
2021/01/14 08:33:34;;;;;;;24.92;13.05;;;;;;;;;;4846546;28;20130;-92
2021/01/14 08:36:05;;;;;;;21.80;12.05;;;;;;;;;;4897604;28;20031;-90
2021/01/14 08:38:33;;;;;;;23.05;12.25;;;;;;;;;;4908559;28;20031;-93
2021/01/14 08:41:02;;;;;;;20.95;11.82;;;;;;;;;;4897723;28;20049;-92
2021/01/14 08:43:42;;;;;;;19.05;11.75;;;;;;;;;;4884353;28;20034;-92
2021/01/14 08:46:12;;;;;;;18.60;11.27;;;;;;;;;;4896695;28;20119;-91
2021/01/14 08:48:38;;;;;;;21.50;11.65;;;;;;;;;;4870417;28;20048;-91
2021/01/14 08:51:04;;;;;;;;;;;;;;;;;;4888179;28;20051;-92
2021/01/14 08:53:33;;;;;;;22.70;10.05;;;;;;;;;;4894210;28;19920;-91
2021/01/14 08:56:08;;;;;;;18.48;8.70;;;;;;;;;;4884930;28;20048;-92
2021/01/14 08:58:46;;;;;;;24.80;11.63;;;;;;;;;;4855476;28;20145;-91
2021/01/14 09:01:19;;;;;;;23.35;13.48;;;;;;;;;;4866959;28;20051;-92
2021/01/14 09:03:49;;;;;;;29.10;15.48;;;;;;;;;;4879412;28;20044;-93
2021/01/14 09:06:32;;;;;;;25.33;13.73;;;;;;;;;;4842782;28;20045;-92
2021/01/14 09:09:02;;;;;;;23.70;13.45;;;;;;;;;;4872039;28;20107;-92
2021/01/14 09:11:33;;;;;;;19.40;8.80;;;;;;;;;;4878366;28;20096;-91
2021/01/14 09:14:03;;;;;;;28.10;15.32;;;;;;;;;;4893679;28;20080;-92
2021/01/14 09:16:35;;;;;;;45.15;23.25;;;;;;;;;;4881049;28;20416;-93
2021/01/14 09:19:27;;;;;;;40.92;20.45;;;;;;;;;;4899372;28;20064;-91
2021/01/14 09:21:54;;;;;;;30.88;11.75;;;;;;;;;;4872431;28;20404;-92
2021/01/14 09:24:26;;;;;;;22.90;10.77;;;;;;;;;;4855275;28;20064;-91
2021/01/14 09:26:56;;;;;;;14.70;7.28;;;;;;;;;;4878767;28;20041;-90
2021/01/14 09:29:31;;;;;;;21.50;9.05;;;;;;;;;;4908638;28;20170;-91
2021/01/14 09:32:12;;;;;;;16.58;8.55;;;;;;;;;;4891843;28;20048;-92
2021/01/14 09:34:41;;;;;;;16.38;7.45;;;;;;;;;;4908544;28;20440;-92
2021/01/14 09:37:19;;;;;;;12.38;4.97;;;;;;;;;;4927584;28;20085;-91
2021/01/14 09:39:49;;;;;;;13.57;5.00;;;;;;;;;;4947198;28;20141;-91
2021/01/14 09:42:24;;;;;;;10.25;3.42;;;;;;;;;;4923280;28;20144;-90
2021/01/14 09:44:55;;;;;;;11.70;3.80;;;;;;;;;;4899704;28;20927;-92
2021/01/14 09:47:22;;;;;;;9.77;2.80;;;;;;;;;;4897493;28;20098;-92
2021/01/14 09:49:48;;;;;;;8.85;2.22;;;;;;;;;;4947229;28;20033;-91
2021/01/14 09:52:28;;;;;;;8.10;2.28;;;;;;;;;;4915039;28;20028;-92
2021/01/14 09:54:55;;;;;;;9.23;3.33;;;;;;;;;;4937005;28;20051;-92
2021/01/14 09:57:23;;;;;;;8.13;2.95;;;;;;;;;;4940446;28;20047;-92
2021/01/14 09:59:51;;;;;;;11.43;3.40;;;;;;;;;;4917357;28;20032;-92
2021/01/14 10:02:33;;;;;;;9.63;3.72;;;;;;;;;;4914230;28;20035;-91
2021/01/14 10:05:12;;;;;;;8.82;2.33;;;;;;;;;;4930953;28;20062;-91
2021/01/14 10:07:44;;;;;;;9.20;2.70;;;;;;;;;;4925025;28;20049;-92
2021/01/14 10:10:10;;;;;;;11.68;4.18;;;;;;;;;;4918484;28;20028;-91
2021/01/14 10:12:37;;;;;;;7.93;2.38;;;;;;;;;;4912320;28;20036;-91
2021/01/14 10:15:11;;;;;;;8.38;2.15;;;;;;;;;;4898138;28;20032;-93
2021/01/14 10:17:42;;;;;;;6.18;1.90;;;;;;;;;;4923007;28;20036;-90
2021/01/14 10:20:12;;;;;;;6.20;1.95;;;;;;;;;;4903205;28;20044;-91
2021/01/14 10:23:07;;;;;;;5.90;1.70;;;;;;;;;;4932187;28;20031;-92
2021/01/14 10:25:35;;;;;;;9.50;2.05;;;;;;;;;;4922074;28;20034;-92
2021/01/14 10:28:12;;;;;;;7.82;1.80;;;;;;;;;;4928155;28;20044;-91
2021/01/14 10:30:43;;;;;;;10.90;2.58;;;;;;;;;;4901551;28;20032;-92
2021/01/14 10:33:10;;;;;;;10.50;3.30;;;;;;;;;;4927219;28;20055;-92
2021/01/14 10:35:38;;;;;;;9.02;2.53;;;;;;;;;;4926599;28;20039;-91
2021/01/14 10:38:15;;;;;;;6.45;2.20;;;;;;;;;;4952009;28;20052;-92
2021/01/14 10:40:47;;;;;;;10.15;2.40;;;;;;;;;;4939822;28;20038;-92
2021/01/14 10:43:28;;;;;;;5.00;1.52;;;;;;;;;;4909444;28;20035;-92
2021/01/14 10:45:55;;;;;;;9.88;2.83;;;;;;;;;;4939322;28;20032;-91
2021/01/14 10:48:23;;;;;;;11.85;3.72;;;;;;;;;;4911158;28;20043;-92
2021/01/14 10:50:57;;;;;;;9.00;4.20;;;;;;;;;;4910228;28;20082;-91
2021/01/14 10:53:41;;;;;;;9.43;4.05;;;;;;;;;;4923933;28;20107;-92
2021/01/14 10:56:10;;;;;;;8.88;3.20;;;;;;;;;;4915964;28;20050;-91
2021/01/14 10:58:38;;;;;;;9.63;2.10;;;;;;;;;;4914038;28;20443;-91
2021/01/14 11:01:17;;;;;;;12.05;3.47;;;;;;;;;;4933077;28;20492;-91
2021/01/14 11:03:43;;;;;;;7.55;2.60;;;;;;;;;;4930019;28;20395;-92
2021/01/14 11:06:10;;;;;;;9.52;2.70;;;;;;;;;;4897023;28;20044;-92
2021/01/14 11:08:44;;;;;;;8.57;3.38;;;;;;;;;;4914879;28;20058;-91
2021/01/14 11:11:16;;;;;;;8.27;2.50;;;;;;;;;;4934701;28;20044;-92
2021/01/14 11:13:47;;;;;;;7.95;2.63;;;;;;;;;;4914897;28;20044;-94
2021/01/14 11:16:16;;;;;;;7.35;2.35;;;;;;;;;;4913621;28;20032;-93
2021/01/14 11:18:50;;;;;;;9.70;3.20;;;;;;;;;;4951003;28;20044;-92
2021/01/14 11:21:18;;;;;;;7.25;2.20;;;;;;;;;;4854042;28;20040;-90
2021/01/14 11:23:45;;;;;;;8.10;2.95;;;;;;;;;;4930660;28;20040;-92
2021/01/14 11:26:21;;;;;;;9.50;3.78;;;;;;;;;;4923472;28;20040;-92
2021/01/14 11:28:49;;;;;;;;;;;;;;;;;;4913959;28;20039;-93
2021/01/14 11:31:19;;;;;;;9.10;3.33;;;;;;;;;;4923411;28;20291;-93
2021/01/14 11:33:45;;;;;;;6.65;2.20;;;;;;;;;;4937528;28;20051;-94
2021/01/14 11:36:19;;;;;;;7.22;2.35;;;;;;;;;;4909753;28;20091;-95
2021/01/14 11:38:48;;;;;;;8.38;2.33;;;;;;;;;;4913966;28;20082;-93
2021/01/14 11:41:21;;;;;;;9.23;2.67;;;;;;;;;;4922456;28;20031;-94
2021/01/14 11:43:49;;;;;;;8.82;2.65;;;;;;;;;;4901588;28;20170;-94
2021/01/14 11:46:20;;;;;;;7.90;2.45;;;;;;;;;;4907256;28;20032;-94
2021/01/14 11:48:49;;;;;;;7.75;2.75;;;;;;;;;;4911699;28;20427;-93
2021/01/14 11:51:16;;;;;;;7.32;2.50;;;;;;;;;;4893686;28;20038;-93
2021/01/14 11:53:42;;;;;;;7.07;2.95;;;;;;;;;;4912456;28;20036;-94
2021/01/14 11:56:10;;;;;;;6.97;2.40;;;;;;;;;;4907890;28;20048;-94
2021/01/14 11:58:38;;;;;;;8.90;2.88;;;;;;;;;;4910672;28;20047;-94
2021/01/14 12:01:07;;;;;;;7.57;2.60;;;;;;;;;;4934299;28;20044;-95
2021/01/14 12:03:34;;;;;;;7.63;2.80;;;;;;;;;;4920720;28;20126;-94
2021/01/14 12:06:03;;;;;;;8.68;2.67;;;;;;;;;;4909081;28;20039;-94
2021/01/14 12:08:30;;;;;;;7.35;2.60;;;;;;;;;;4913071;28;20039;-94
2021/01/14 12:10:59;;;;;;;7.97;2.85;;;;;;;;;;4911754;28;20050;-95
2021/01/14 12:13:29;;;;;;;7.85;2.80;;;;;;;;;;4921043;28;20044;-94
2021/01/14 12:15:58;;;;;;;10.25;3.40;;;;;;;;;;4927163;28;20055;-95
2021/01/14 12:18:24;;;;;;;9.60;3.20;;;;;;;;;;4918564;28;20095;-93
2021/01/14 12:20:51;;;;;;;8.35;2.95;;;;;;;;;;4884496;28;20048;-93
2021/01/14 12:23:19;;;;;;;10.32;2.92;;;;;;;;;;4913277;28;20122;-94
2021/01/14 12:25:46;;;;;;;8.57;3.05;;;;;;;;;;4922521;28;20040;-94
2021/01/14 12:28:14;;;;;;;8.05;2.88;;;;;;;;;;4938757;28;20039;-93
2021/01/14 12:30:42;;;;;;;9.60;3.15;;;;;;;;;;4949014;28;20349;-92
2021/01/14 12:33:10;;;;;;;11.48;3.10;;;;;;;;;;4948306;28;20082;-94
2021/01/14 12:35:38;;;;;;;7.50;2.53;;;;;;;;;;4899940;28;20488;-94
2021/01/14 12:38:06;;;;;;;7.88;2.35;;;;;;;;;;4936714;28;20044;-94
2021/01/14 12:40:32;;;;;;;8.20;2.67;;;;;;;;;;4908932;28;20040;-96
2021/01/14 12:43:00;;;;;;;8.88;3.03;;;;;;;;;;4928399;28;20031;-96
2021/01/14 12:45:28;;;;;;;11.18;5.00;;;;;;;;;;4891619;28;20036;-95
2021/01/14 12:47:56;;;;;;;8.15;2.70;;;;;;;;;;4926729;28;20046;-93
2021/01/14 12:50:23;;;;;;;7.40;2.50;;;;;;;;;;4899682;28;20049;-93
2021/01/14 12:52:50;;;;;;;7.50;2.17;;;;;;;;;;4893674;28;20042;-93
2021/01/14 12:55:18;;;;;;;9.20;2.53;;;;;;;;;;4928283;28;20424;-93
2021/01/14 12:57:46;;;;;;;9.77;2.60;;;;;;;;;;4931763;28;20022;-93
2021/01/14 13:00:16;;;;;;;7.55;2.67;;;;;;;;;;4919299;28;20036;-95
2021/01/14 13:02:43;;;;;;;7.88;2.80;;;;;;;;;;4923669;28;21067;-89
2021/01/14 13:05:12;;;;;;;10.60;5.53;;;;;;;;;;4926389;28;20059;-91
2021/01/14 13:07:40;;;;;;;8.48;2.90;;;;;;;;;;4941329;28;20117;-92
2021/01/14 13:10:11;;;;;;;8.45;2.80;;;;;;;;;;4936344;28;20054;-93
2021/01/14 13:12:38;;;;;;;6.90;2.70;;;;;;;;;;4930766;28;20113;-95
2021/01/14 13:15:08;;;;;;;7.47;3.05;;;;;;;;;;4942224;28;20110;-92
2021/01/14 13:17:35;;;;;;;9.25;3.70;;;;;;;;;;4925012;28;20045;-92
2021/01/14 13:20:03;;;;;;;8.48;3.13;;;;;;;;;;4906435;28;20062;-95
2021/01/14 13:22:32;;;;;;;7.07;2.42;;;;;;;;;;4928715;28;20050;-93
2021/01/14 13:24:59;;;;;;;7.22;2.28;;;;;;;;;;4942834;28;20035;-93
2021/01/14 13:27:27;;;;;;;8.48;3.22;;;;;;;;;;4917867;28;20130;-93
2021/01/14 13:29:58;;;;;;;8.25;2.83;;;;;;;;;;4903780;28;20032;-89
2021/01/14 13:32:33;;;;;;;7.95;2.67;;;;;;;;;;4924974;28;20036;-93
2021/01/14 13:35:00;;;;;;;9.43;3.25;;;;;;;;;;4904934;28;20036;-92
2021/01/14 13:37:29;;;;;;;10.95;6.47;;;;;;;;;;4910751;28;20049;-91
2021/01/14 13:39:55;;;;;;;10.10;4.72;;;;;;;;;;4916085;28;20027;-91
2021/01/14 13:42:25;;;;;;;8.65;4.03;;;;;;;;;;4891739;28;20032;-91
2021/01/14 13:44:54;;;;;;;10.10;5.15;;;;;;;;;;4909673;28;20740;-92
2021/01/14 13:47:22;;;;;;;7.80;3.15;;;;;;;;;;4925615;28;20043;-92
2021/01/14 13:49:50;;;;;;;9.90;4.50;;;;;;;;;;4917229;28;20055;-93
2021/01/14 13:52:17;;;;;;;8.05;3.35;;;;;;;;;;4906335;28;20051;-92
2021/01/14 13:54:48;;;;;;;8.13;2.80;;;;;;;;;;4908413;28;21035;-95
2021/01/14 13:57:14;;;;;;;7.70;2.92;;;;;;;;;;4982385;28;20043;-92
2021/01/14 13:59:41;;;;;;;7.55;2.60;;;;;;;;;;4921776;28;20063;-93
2021/01/14 14:02:10;;;;;;;8.88;3.53;;;;;;;;;;4940409;28;20501;-93
2021/01/14 14:04:39;;;;;;;10.35;3.00;;;;;;;;;;4928286;28;20036;-92
2021/01/14 14:07:08;;;;;;;7.15;2.65;;;;;;;;;;4925034;28;20047;-94
2021/01/14 14:09:37;;;;;;;6.82;2.15;;;;;;;;;;4911538;28;20066;-92
2021/01/14 14:12:07;;;;;;;6.78;2.20;;;;;;;;;;4913956;28;20134;-91
2021/01/14 14:14:39;;;;;;;7.47;2.40;;;;;;;;;;4899996;28;20048;-92
2021/01/14 14:17:07;;;;;;;8.57;2.90;;;;;;;;;;4916885;28;20046;-92
2021/01/14 14:19:36;;;;;;;8.30;3.10;;;;;;;;;;4922907;28;20074;-92
2021/01/14 14:22:06;;;;;;;7.40;2.92;;;;;;;;;;4929505;28;20134;-89
2021/01/14 14:24:33;;;;;;;8.68;2.58;;;;;;;;;;4928787;28;20058;-91
2021/01/14 14:27:06;;;;;;;8.23;2.55;;;;;;;;;;4939520;28;20040;-92
2021/01/14 14:29:34;;;;;;;7.38;2.38;;;;;;;;;;4906939;28;20112;-94
2021/01/14 14:32:02;;;;;;;7.07;2.50;;;;;;;;;;4946049;28;20076;-89
2021/01/14 14:34:29;;;;;;;7.57;2.60;;;;;;;;;;4928884;28;20043;-91
2021/01/14 14:36:56;;;;;;;7.22;2.28;;;;;;;;;;4937190;28;20027;-91
2021/01/14 14:39:23;;;;;;;9.10;2.80;;;;;;;;;;4958398;28;20048;-93
2021/01/14 14:41:53;;;;;;;8.38;2.85;;;;;;;;;;4899018;28;20055;-91
2021/01/14 14:44:22;;;;;;;7.53;2.33;;;;;;;;;;4919767;28;20040;-93
2021/01/14 14:46:49;;;;;;;9.35;2.70;;;;;;;;;;4910031;28;20059;-92
2021/01/14 14:49:16;;;;;;;7.53;2.30;;;;;;;;;;4944792;28;20119;-90
2021/01/14 14:51:48;;;;;;;7.72;2.75;;;;;;;;;;4916430;28;20104;-90
2021/01/14 14:54:20;;;;;;;9.02;3.22;;;;;;;;;;4917520;28;20071;-91
2021/01/14 14:56:47;;;;;;;9.27;3.50;;;;;;;;;;4936255;28;20102;-92
2021/01/14 14:59:14;;;;;;;8.43;2.92;;;;;;;;;;4942463;28;20063;-93